Time;durP1;ratioP1;P1;durP2;ratioP2;P2;SDS_P1;SDS_P2;PMS_P1;PMS_P2;Temp;Humidity;BMP_temperature;BMP_pressure;BME280_temperature;BME280_humidity;BME280_pressure;Samples;Min_cycle;Max_cycle;Signal;HPM_P1;HPM_P2
2022/11/23 00:02:22;;;;;;;4.60;1.17;;;;;;;10.30;64.86;95754.59;4861165;28;20218;-77
2022/11/23 00:04:47;;;;;;;5.10;1.08;;;;;;;10.37;65.17;95749.09;4863960;28;20251;-76
2022/11/23 00:07:13;;;;;;;6.65;0.88;;;;;;;10.09;65.87;95748.81;4884941;28;20285;-76
2022/11/23 00:09:38;;;;;;;5.57;1.48;;;;;;;10.14;65.56;95751.38;4878585;28;20263;-76
2022/11/23 00:12:04;;;;;;;4.47;1.20;;;;;;;10.19;65.09;95748.72;4873783;28;20200;-77
2022/11/23 00:14:29;;;;;;;5.85;1.77;;;;;;;9.87;66.48;95744.09;4867438;29;20275;-76
2022/11/23 00:16:54;;;;;;;6.30;1.02;;;;;;;10.22;65.37;95753.38;4867035;28;20223;-77
2022/11/23 00:19:20;;;;;;;5.55;1.10;;;;;;;10.15;65.70;95747.72;4868269;28;20203;-77
2022/11/23 00:21:45;;;;;;;7.18;1.58;;;;;;;10.23;65.43;95754.13;4886666;28;20582;-76
2022/11/23 00:24:11;;;;;;;5.82;1.00;;;;;;;10.40;65.33;95751.13;4879068;28;20201;-77
2022/11/23 00:26:37;;;;;;;6.90;1.40;;;;;;;10.40;64.82;95756.31;4860182;28;20683;-76
2022/11/23 00:29:02;;;;;;;7.03;1.00;;;;;;;10.26;65.58;95756.19;4878334;28;20276;-76
2022/11/23 00:31:28;;;;;;;5.20;1.02;;;;;;;10.48;64.49;95758.31;4882099;28;20172;-76
2022/11/23 00:33:54;;;;;;;4.72;0.98;;;;;;;10.32;65.34;95767.38;4883377;28;20207;-76
2022/11/23 00:36:20;;;;;;;5.82;2.05;;;;;;;10.39;65.14;95760.00;4883270;28;20195;-76
2022/11/23 00:38:47;;;;;;;6.40;1.85;;;;;;;10.32;65.15;95769.97;4864449;28;20240;-76
2022/11/23 00:41:18;;;;;;;4.85;1.25;;;;;;;10.54;64.40;95761.63;4882949;28;20185;-76
2022/11/23 00:43:44;;;;;;;5.10;1.58;;;;;;;10.48;64.44;95772.09;4869197;28;20176;-77
2022/11/23 00:46:14;;;;;;;4.47;1.30;;;;;;;10.66;64.13;95775.03;4883247;28;20254;-76
2022/11/23 00:48:39;;;;;;;3.22;1.00;;;;;;;10.41;65.04;95763.84;4863318;28;20243;-76
2022/11/23 00:51:07;;;;;;;4.60;1.25;;;;;;;10.55;64.36;95763.94;4878477;28;20402;-76
2022/11/23 00:53:33;;;;;;;5.78;1.33;;;;;;;10.32;65.54;95770.72;4879990;28;20297;-76
2022/11/23 00:55:59;;;;;;;6.05;1.27;;;;;;;10.41;64.82;95773.50;4868902;28;20666;-76
2022/11/23 00:58:24;;;;;;;4.57;1.10;;;;;;;10.26;65.21;95764.78;4883117;28;20217;-76
2022/11/23 01:00:50;;;;;;;4.63;1.52;;;;;;;10.25;65.13;95773.63;4882945;28;20193;-76
2022/11/23 01:03:16;;;;;;;3.35;1.23;;;;;;;10.19;65.53;95766.91;4857576;29;20349;-76
2022/11/23 01:05:41;;;;;;;4.50;1.33;;;;;;;10.17;65.60;95769.03;4883132;28;20172;-77
2022/11/23 01:08:07;;;;;;;6.47;1.73;;;;;;;10.32;64.97;95767.38;4849147;28;20215;-76
2022/11/23 01:10:33;;;;;;;8.02;1.15;;;;;;;10.14;65.70;95774.78;4857370;29;20737;-76
2022/11/23 01:12:58;;;;;;;5.47;1.48;;;;;;;10.08;65.44;95775.88;4875691;28;20196;-76
2022/11/23 01:15:24;;;;;;;5.50;1.13;;;;;;;10.20;65.23;95778.88;4876701;28;20250;-76
2022/11/23 01:17:49;;;;;;;6.35;1.10;;;;;;;10.25;65.19;95773.63;4880465;28;20255;-77
2022/11/23 01:20:15;;;;;;;5.15;1.35;;;;;;;9.93;66.20;95774.19;4883273;28;20172;-76
2022/11/23 01:22:40;;;;;;;5.05;1.90;;;;;;;9.95;66.40;95769.50;4883260;28;20691;-76
2022/11/23 01:25:06;;;;;;;4.95;0.98;;;;;;;10.19;65.38;95772.13;4863413;28;20360;-76
2022/11/23 01:27:32;;;;;;;4.15;1.73;;;;;;;9.94;66.23;95773.16;4877916;28;20158;-76
2022/11/23 01:29:57;;;;;;;5.95;1.02;;;;;;;10.27;65.09;95779.31;4877530;28;20195;-76
2022/11/23 01:32:22;;;;;;;3.72;0.90;;;;;;;10.35;64.72;95777.19;4882901;28;20215;-76
2022/11/23 01:34:48;;;;;;;6.05;2.10;;;;;;;10.35;64.61;95777.19;4875455;28;20195;-76
2022/11/23 01:37:13;;;;;;;8.43;1.98;;;;;;;10.36;64.86;95771.72;4883142;28;20732;-77
2022/11/23 01:39:38;;;;;;;4.72;1.88;;;;;;;10.33;64.94;95777.47;4879391;28;20641;-76
2022/11/23 01:42:07;;;;;;;7.47;1.38;;;;;;;10.48;64.52;95771.31;4877493;28;20101;-76
2022/11/23 01:44:34;;;;;;;6.47;1.33;;;;;;;10.42;64.65;95768.00;4874382;28;20649;-76
2022/11/23 01:47:05;;;;;;;8.25;1.70;;;;;;;10.54;64.25;95778.03;4876809;28;20262;-76
2022/11/23 01:49:34;;;;;;;5.60;1.55;;;;;;;10.33;64.83;95769.66;4879204;28;20282;-76
2022/11/23 01:52:03;;;;;;;7.82;1.48;;;;;;;10.34;64.83;95778.25;4881673;28;20275;-76
2022/11/23 01:54:35;;;;;;;7.35;1.65;;;;;;;10.40;64.74;95777.13;4866905;29;20286;-77
2022/11/23 01:57:06;;;;;;;4.50;1.70;;;;;;;10.42;64.45;95785.47;4867070;29;20697;-76
2022/11/23 01:59:32;;;;;;;11.32;2.47;;;;;;;10.10;65.03;95776.38;4867129;28;20177;-76
2022/11/23 02:01:58;;;;;;;11.10;1.70;;;;;;;10.36;64.56;95781.34;4863030;28;20764;-75
2022/11/23 02:04:28;;;;;;;4.22;1.30;;;;;;;10.37;65.00;95788.13;4852558;29;20169;-76
2022/11/23 02:06:54;;;;;;;8.13;2.33;;;;;;;10.38;64.55;95784.44;4855905;29;20193;-76
2022/11/23 02:09:20;;;;;;;7.95;1.50;;;;;;;10.47;63.85;95778.38;4876442;28;20249;-76
2022/11/23 02:11:45;;;;;;;5.13;1.30;;;;;;;10.64;63.35;95767.50;4877737;28;20266;-76
2022/11/23 02:14:11;;;;;;;6.00;1.70;;;;;;;10.35;63.68;95764.97;4882711;28;20559;-76
2022/11/23 02:16:37;;;;;;;7.03;2.13;;;;;;;10.44;64.24;95768.50;4882586;28;20334;-77
2022/11/23 02:19:03;;;;;;;8.45;1.70;;;;;;;10.42;63.92;95772.44;4865162;28;20203;-76
2022/11/23 02:21:28;;;;;;;9.02;1.33;;;;;;;10.52;63.29;95772.34;4882268;28;20643;-75
2022/11/23 02:24:03;;;;;;;5.88;1.48;;;;;;;10.57;63.70;95782.66;4864416;28;20173;-76
2022/11/23 02:26:31;;;;;;;4.78;1.48;;;;;;;10.61;63.51;95772.50;4857909;29;20211;-76
2022/11/23 02:29:16;;;;;;;9.27;2.13;;;;;;;10.43;64.33;95766.94;4864284;29;20188;-76
2022/11/23 02:31:41;;;;;;;3.90;1.40;;;;;;;10.44;63.81;95767.75;4880532;28;20649;-76
2022/11/23 02:34:06;;;;;;;6.28;1.75;;;;;;;10.42;64.06;95764.66;4863013;28;20172;-76
2022/11/23 02:36:35;;;;;;;5.45;1.65;;;;;;;10.60;63.71;95776.91;4882597;28;20222;-76
2022/11/23 02:39:07;;;;;;;4.55;1.38;;;;;;;10.60;63.84;95768.31;4878883;28;20215;-76
2022/11/23 02:41:42;;;;;;;7.18;1.33;;;;;;;10.66;63.49;95775.81;4863374;29;20240;-75
2022/11/23 02:44:14;;;;;;;4.18;1.40;;;;;;;10.60;63.86;95771.69;4870264;28;20156;-76
2022/11/23 02:46:39;;;;;;;6.50;1.70;;;;;;;10.45;64.29;95769.28;4875553;28;20286;-75
2022/11/23 02:49:05;;;;;;;7.85;2.58;;;;;;;10.44;64.13;95767.75;4878641;28;20172;-77
2022/11/23 02:51:30;;;;;;;6.10;2.00;;;;;;;10.48;63.99;95764.28;4865718;29;20207;-75
2022/11/23 02:53:55;;;;;;;6.03;1.95;;;;;;;10.43;64.68;95766.19;4882254;28;20176;-76
2022/11/23 02:56:21;;;;;;;6.63;1.42;;;;;;;10.31;64.27;95769.13;4877365;28;20251;-76
2022/11/23 02:58:46;;;;;;;5.40;1.80;;;;;;;10.44;63.81;95776.31;4882401;28;20172;-75
2022/11/23 03:01:12;;;;;;;6.18;1.88;;;;;;;10.18;64.94;95775.00;4878343;28;20686;-76
2022/11/23 03:03:37;;;;;;;6.15;1.08;;;;;;;10.19;64.81;95766.16;4883835;28;20309;-76
2022/11/23 03:06:02;;;;;;;8.90;1.80;;;;;;;10.07;65.19;95769.13;4871351;28;20133;-76
2022/11/23 03:08:28;;;;;;;6.03;2.17;;;;;;;10.21;65.06;95767.44;4885549;28;20164;-76
2022/11/23 03:10:53;;;;;;;6.47;1.77;;;;;;;10.37;64.55;95768.06;4868492;28;20256;-76
2022/11/23 03:13:18;;;;;;;6.40;1.85;;;;;;;10.41;63.88;95763.09;4885348;28;20188;-76
2022/11/23 03:15:44;;;;;;;5.65;2.15;;;;;;;10.17;65.05;95769.03;4885388;28;20285;-76
2022/11/23 03:18:09;;;;;;;6.45;1.33;;;;;;;10.08;65.14;95768.09;4869298;28;20307;-76
2022/11/23 03:20:35;;;;;;;5.35;1.17;;;;;;;10.27;64.44;95761.13;4877837;28;20176;-76
2022/11/23 03:23:01;;;;;;;9.23;1.70;;;;;;;10.38;64.27;95761.78;4880102;28;20177;-76
2022/11/23 03:25:26;;;;;;;3.70;1.20;;;;;;;10.39;64.24;95773.78;4878535;28;20645;-76
2022/11/23 03:27:51;;;;;;;7.70;1.15;;;;;;;10.37;64.45;95772.50;4866914;29;20282;-76
2022/11/23 03:30:17;;;;;;;3.15;1.05;;;;;;;10.41;64.59;95768.28;4884659;28;20364;-76
2022/11/23 03:32:42;;;;;;;5.28;1.02;;;;;;;10.42;64.21;95772.44;4870656;28;20294;-76
2022/11/23 03:35:08;;;;;;;6.43;1.45;;;;;;;10.38;63.72;95759.19;4884987;28;20200;-76
2022/11/23 03:37:33;;;;;;;5.78;1.60;;;;;;;10.45;63.71;95769.28;4868054;28;20203;-76
2022/11/23 03:39:58;;;;;;;8.88;1.25;;;;;;;10.33;64.13;95771.50;4860756;29;20207;-75
2022/11/23 03:42:24;;;;;;;4.88;1.67;;;;;;;10.37;64.07;95775.09;4881978;28;20283;-77
2022/11/23 03:44:49;;;;;;;4.53;1.42;;;;;;;10.34;64.66;95773.81;4875632;28;20181;-76
2022/11/23 03:47:15;;;;;;;5.60;1.50;;;;;;;10.36;64.18;95778.75;4885021;28;20641;-77
2022/11/23 03:49:40;;;;;;;6.45;1.00;;;;;;;10.38;64.16;95774.81;4881783;28;20242;-76
2022/11/23 03:52:05;;;;;;;4.68;1.48;;;;;;;10.36;64.41;95768.34;4884407;28;20215;-77
2022/11/23 03:54:31;;;;;;;7.88;1.42;;;;;;;10.35;64.42;95772.00;4866856;28;20216;-77
2022/11/23 03:56:56;;;;;;;7.25;1.58;;;;;;;10.32;64.46;95768.13;4882754;28;20203;-76
2022/11/23 03:59:21;;;;;;;8.68;1.17;;;;;;;10.29;64.72;95772.00;4879934;28;20255;-76
2022/11/23 04:01:47;;;;;;;3.38;1.33;;;;;;;10.35;64.66;95770.19;4878275;28;20295;-76
2022/11/23 04:04:12;;;;;;;6.57;1.88;;;;;;;10.28;64.54;95767.88;4884838;28;20215;-76
2022/11/23 04:06:38;;;;;;;2.40;1.13;;;;;;;10.26;64.96;95772.59;4880898;28;20176;-76
2022/11/23 04:09:03;;;;;;;6.88;1.88;;;;;;;10.27;64.87;95771.53;4867543;28;20312;-76
2022/11/23 04:11:29;;;;;;;8.90;2.13;;;;;;;10.18;65.09;95765.38;4882056;28;20778;-76
2022/11/23 04:13:54;;;;;;;7.43;1.38;;;;;;;10.27;64.67;95763.72;4884293;28;20253;-76
2022/11/23 04:16:19;;;;;;;9.40;2.28;;;;;;;10.15;64.83;95752.94;4874688;28;20185;-76
2022/11/23 04:18:45;;;;;;;5.90;1.08;;;;;;;10.22;64.49;95755.97;4879649;28;20286;-75
2022/11/23 04:21:10;;;;;;;4.80;1.67;;;;;;;10.12;64.99;95754.25;4868951;29;20278;-76
2022/11/23 04:23:35;;;;;;;3.85;1.40;;;;;;;10.14;65.05;95748.75;4882174;28;20286;-77
2022/11/23 04:26:01;;;;;;;7.03;1.17;;;;;;;10.33;64.55;95750.69;4879220;28;20708;-76
2022/11/23 04:28:26;;;;;;;4.15;1.00;;;;;;;10.30;64.62;95759.81;4883624;28;20172;-76
2022/11/23 04:30:51;;;;;;;7.50;1.10;;;;;;;10.28;64.59;95752.28;4878385;28;20172;-76
2022/11/23 04:33:17;;;;;;;3.25;1.13;;;;;;;10.26;64.78;95764.78;4884027;28;20193;-77
2022/11/23 04:35:42;;;;;;;9.27;1.23;;;;;;;10.14;65.23;95759.16;4881369;28;20439;-76
2022/11/23 04:38:08;;;;;;;6.95;1.45;;;;;;;10.19;65.04;95760.94;4880947;28;20656;-76
2022/11/23 04:40:33;;;;;;;6.45;1.10;;;;;;;10.13;65.15;95752.44;4883962;28;20172;-76
2022/11/23 04:42:58;;;;;;;4.35;1.35;;;;;;;10.21;65.03;95751.03;4866989;28;20224;-76
2022/11/23 04:45:24;;;;;;;8.27;1.38;;;;;;;10.16;65.21;95756.28;4874197;28;20285;-77
2022/11/23 04:47:49;;;;;;;4.45;1.17;;;;;;;10.24;64.81;95764.25;4852317;29;20176;-77
2022/11/23 04:50:15;;;;;;;7.18;1.63;;;;;;;10.24;64.77;95764.25;4880880;28;20218;-76
2022/11/23 04:52:40;;;;;;;6.43;1.30;;;;;;;10.12;64.51;95767.25;4883525;28;20710;-76
2022/11/23 04:55:06;;;;;;;5.40;1.27;;;;;;;10.23;64.49;95767.94;4865019;28;20215;-77
2022/11/23 04:57:32;;;;;;;5.97;1.75;;;;;;;10.10;64.78;95764.16;4883838;28;20188;-76
2022/11/23 04:59:57;;;;;;;4.90;1.35;;;;;;;10.09;64.77;95767.03;4883630;28;20696;-76
2022/11/23 05:02:22;;;;;;;4.75;0.98;;;;;;;10.13;64.77;95762.84;4883320;28;20437;-76
2022/11/23 05:04:48;;;;;;;4.82;1.27;;;;;;;10.11;64.73;95764.94;4850084;29;20251;-76
2022/11/23 05:07:13;;;;;;;4.55;1.48;;;;;;;10.20;64.73;95768.47;4868532;29;20215;-76
2022/11/23 05:09:38;;;;;;;6.28;1.58;;;;;;;10.15;64.88;95773.72;4882430;28;20207;-76
2022/11/23 05:12:04;;;;;;;6.03;0.93;;;;;;;10.06;64.87;95776.16;4877526;28;20253;-77
2022/11/23 05:14:30;;;;;;;6.95;0.95;;;;;;;10.10;64.87;95774.56;4865821;29;20372;-76
2022/11/23 05:16:55;;;;;;;6.53;1.50;;;;;;;10.14;64.79;95772.16;4877422;28;20218;-76
2022/11/23 05:19:21;;;;;;;7.43;1.30;;;;;;;10.17;65.27;95774.22;4877410;28;20338;-76
2022/11/23 05:21:46;;;;;;;4.47;1.48;;;;;;;10.16;65.04;95772.69;4880242;28;20633;-76
2022/11/23 05:24:11;;;;;;;4.75;1.27;;;;;;;10.19;64.72;95772.13;4879099;28;20754;-76
2022/11/23 05:26:37;;;;;;;4.90;1.33;;;;;;;10.02;65.10;95766.56;4878941;28;20641;-77
2022/11/23 05:29:02;;;;;;;5.25;1.60;;;;;;;10.21;64.65;95774.44;4883371;28;20614;-76
2022/11/23 05:31:27;;;;;;;4.70;1.45;;;;;;;10.18;64.73;95765.38;4869204;28;20209;-76
2022/11/23 05:33:53;;;;;;;7.65;1.55;;;;;;;10.12;64.89;95771.69;4883139;28;20321;-76
2022/11/23 05:36:18;;;;;;;8.48;1.83;;;;;;;10.09;64.54;95767.81;4856393;28;20216;-76
2022/11/23 05:38:43;;;;;;;4.25;1.67;;;;;;;10.08;65.13;95766.25;4843504;29;20219;-77
2022/11/23 05:41:09;;;;;;;4.88;1.30;;;;;;;10.07;65.28;95763.94;4882850;28;20192;-76
2022/11/23 05:43:34;;;;;;;5.53;1.10;;;;;;;10.12;64.83;95769.06;4871923;28;20539;-77
2022/11/23 05:46:00;;;;;;;6.10;1.55;;;;;;;10.20;64.60;95767.72;4857814;29;20658;-76
2022/11/23 05:48:26;;;;;;;2.75;1.77;;;;;;;10.21;64.36;95766.66;4864567;29;20247;-76
2022/11/23 05:50:51;;;;;;;7.30;1.40;;;;;;;10.11;64.37;95775.34;4862449;29;20183;-76
2022/11/23 05:53:16;;;;;;;5.68;1.27;;;;;;;10.14;64.31;95764.38;4881158;28;20252;-76
2022/11/23 05:55:42;;;;;;;3.03;0.85;;;;;;;10.21;64.14;95774.44;4865860;29;20218;-76
2022/11/23 05:58:07;;;;;;;7.15;1.83;;;;;;;10.19;64.11;95772.13;4882711;28;20259;-76
2022/11/23 06:00:33;;;;;;;6.45;1.60;;;;;;;10.21;64.27;95779.66;4882304;28;20230;-76
2022/11/23 06:03:02;;;;;;;4.80;1.10;;;;;;;10.28;63.92;95777.50;4881778;28;20074;-76
2022/11/23 06:05:28;;;;;;;6.28;1.60;;;;;;;10.21;64.38;95784.84;4860685;29;20176;-76
2022/11/23 06:07:53;;;;;;;4.93;1.15;;;;;;;10.10;64.67;95776.38;4881876;28;20221;-76
2022/11/23 06:10:19;;;;;;;5.68;1.10;;;;;;;10.22;64.34;95778.59;4863325;28;20179;-77
2022/11/23 06:12:45;;;;;;;8.98;1.85;;;;;;;10.22;63.72;95781.97;4847733;29;20638;-77
2022/11/23 06:15:11;;;;;;;6.15;1.23;;;;;;;10.14;63.82;95785.19;4872984;28;20199;-76
2022/11/23 06:17:36;;;;;;;5.63;1.05;;;;;;;10.11;64.27;95780.53;4881984;28;20443;-77
2022/11/23 06:20:03;;;;;;;6.18;1.50;;;;;;;10.09;63.66;95780.03;4875863;28;20298;-77
2022/11/23 06:22:28;;;;;;;5.78;1.25;;;;;;;10.09;63.92;95777.41;4881445;28;20400;-76
2022/11/23 06:24:53;;;;;;;9.05;1.90;;;;;;;9.96;64.00;95775.50;4862270;28;20288;-76
2022/11/23 06:27:19;;;;;;;7.05;1.05;;;;;;;10.04;63.58;95782.66;4878886;28;20219;-76
2022/11/23 06:29:45;;;;;;;4.03;1.00;;;;;;;9.81;63.72;95784.97;4877249;28;20758;-76
2022/11/23 06:32:11;;;;;;;4.65;1.15;;;;;;;9.86;63.77;95784.16;4875504;28;20721;-76
2022/11/23 06:34:36;;;;;;;4.72;1.25;;;;;;;9.96;63.22;95784.06;4874954;28;20145;-77
2022/11/23 06:37:01;;;;;;;4.40;0.98;;;;;;;9.84;63.30;95787.00;4881441;28;20286;-76
2022/11/23 06:39:27;;;;;;;3.67;1.27;;;;;;;9.77;63.23;95789.16;4879805;28;20649;-76
2022/11/23 06:41:52;;;;;;;3.20;1.00;;;;;;;9.62;63.50;95789.28;4877213;28;20200;-77
2022/11/23 06:44:17;;;;;;;3.28;0.75;;;;;;;9.64;63.31;95795.75;4864261;29;20222;-76
2022/11/23 06:46:43;;;;;;;7.00;0.95;;;;;;;9.40;64.04;95793.06;4880922;28;20198;-76
2022/11/23 06:49:08;;;;;;;5.53;0.93;;;;;;;9.47;63.62;95788.34;4869014;28;20210;-76
2022/11/23 06:51:33;;;;;;;4.60;1.70;;;;;;;9.26;64.10;95792.13;4875002;28;20438;-75
2022/11/23 06:53:59;;;;;;;4.47;1.38;;;;;;;9.39;63.88;95791.53;4868074;28;20295;-76
2022/11/23 06:56:24;;;;;;;4.65;1.83;;;;;;;9.42;64.03;95798.75;4862359;29;20248;-77
2022/11/23 06:58:49;;;;;;;5.20;1.48;;;;;;;9.39;64.39;95801.91;4854313;29;20172;-76
2022/11/23 07:01:15;;;;;;;6.13;1.00;;;;;;;9.38;64.77;95800.34;4860523;29;20306;-76
2022/11/23 07:03:40;;;;;;;4.60;1.00;;;;;;;9.44;64.31;95799.28;4861621;29;20216;-76
2022/11/23 07:06:07;;;;;;;6.32;1.10;;;;;;;9.34;64.70;95802.72;4855602;29;20704;-76
2022/11/23 07:08:33;;;;;;;5.78;1.10;;;;;;;9.29;64.71;95802.00;4847722;28;20562;-76
2022/11/23 07:11:04;;;;;;;4.00;1.40;;;;;;;9.34;64.19;95802.72;4880082;28;20218;-76
2022/11/23 07:13:29;;;;;;;4.00;1.33;;;;;;;9.22;64.04;95806.69;4870547;28;20205;-76
2022/11/23 07:15:56;;;;;;;8.18;1.42;;;;;;;9.22;64.55;95798.88;4885756;28;20596;-76
2022/11/23 07:18:22;;;;;;;6.00;1.63;;;;;;;9.23;64.28;95803.06;4883569;28;20274;-76
2022/11/23 07:20:47;;;;;;;4.78;1.05;;;;;;;9.33;64.21;95806.34;4850040;29;20171;-76
2022/11/23 07:23:12;;;;;;;4.43;1.40;;;;;;;9.23;63.84;95798.63;4885461;28;20443;-77
2022/11/23 07:25:38;;;;;;;9.98;1.40;;;;;;;9.21;64.00;95800.72;4885784;28;20215;-76
2022/11/23 07:28:05;;;;;;;5.15;1.35;;;;;;;9.19;64.54;95803.59;4885572;28;20219;-77
2022/11/23 07:30:32;;;;;;;6.68;0.80;;;;;;;9.24;64.39;95799.41;4869638;29;20196;-77
2022/11/23 07:33:08;;;;;;;3.83;1.13;;;;;;;9.35;64.33;95809.44;4853208;29;20231;-76
2022/11/23 07:35:53;;;;;;;3.28;1.08;;;;;;;9.18;64.38;95809.03;4883264;28;20682;-77
2022/11/23 07:38:19;;;;;;;4.82;1.23;;;;;;;9.13;65.09;95804.69;4882821;28;20263;-76
2022/11/23 07:40:47;;;;;;;4.63;1.67;;;;;;;9.21;64.97;95792.16;4884797;28;20282;-76
2022/11/23 07:43:13;;;;;;;5.25;1.00;;;;;;;9.23;64.67;95793.44;4880232;28;20168;-76
2022/11/23 07:45:38;;;;;;;5.88;1.40;;;;;;;9.19;65.08;95792.44;4865892;29;20267;-77
2022/11/23 07:48:05;;;;;;;4.53;0.98;;;;;;;9.43;64.35;95789.94;4864653;28;20367;-76
2022/11/23 07:50:31;;;;;;;5.68;1.15;;;;;;;9.44;64.02;95794.09;4849609;29;20834;-76
2022/11/23 07:52:57;;;;;;;5.40;1.42;;;;;;;9.38;64.15;95793.34;4884316;28;20177;-76
2022/11/23 07:55:22;;;;;;;5.65;1.13;;;;;;;9.34;64.36;95791.56;4885409;28;20322;-76
2022/11/23 07:57:53;;;;;;;7.57;2.30;;;;;;;9.31;65.05;95792.09;4884769;28;20346;-76
2022/11/23 08:00:19;;;;;;;5.10;1.02;;;;;;;9.35;64.63;95804.25;4862963;29;20200;-77
2022/11/23 08:02:44;;;;;;;4.32;1.35;;;;;;;9.45;64.53;95800.06;4862309;28;20815;-76
2022/11/23 08:05:10;;;;;;;6.78;1.20;;;;;;;9.52;64.10;95800.53;4885245;28;20315;-76
2022/11/23 08:07:35;;;;;;;6.22;1.30;;;;;;;9.14;64.16;95795.81;4884608;28;20649;-76
2022/11/23 08:10:00;;;;;;;6.85;2.83;;;;;;;9.50;63.48;95800.03;4884582;28;20196;-76
2022/11/23 08:12:26;;;;;;;7.07;1.15;;;;;;;9.54;63.50;95804.41;4868122;28;20198;-76
2022/11/23 08:14:51;;;;;;;3.30;1.00;;;;;;;9.74;63.18;95798.28;4884711;28;20593;-76
2022/11/23 08:17:17;;;;;;;4.28;0.88;;;;;;;9.79;62.40;95794.84;4870483;28;20246;-76
2022/11/23 08:19:42;;;;;;;6.18;1.38;;;;;;;9.77;62.96;95793.56;4879074;28;20286;-77
2022/11/23 08:22:08;;;;;;;3.92;1.17;;;;;;;9.76;62.78;95805.78;4884257;28;20382;-77
2022/11/23 08:24:33;;;;;;;4.20;1.10;;;;;;;9.75;62.62;95801.66;4868845;29;20203;-76
2022/11/23 08:26:58;;;;;;;3.35;0.90;;;;;;;9.81;62.97;95797.94;4870006;28;20215;-76
2022/11/23 08:29:24;;;;;;;5.47;1.40;;;;;;;9.83;62.43;95803.66;4852630;29;20718;-76
2022/11/23 08:31:50;;;;;;;5.32;1.60;;;;;;;9.93;62.47;95810.59;4849934;29;20187;-77
2022/11/23 08:34:17;;;;;;;5.50;1.40;;;;;;;9.80;62.22;95808.63;4863114;28;20224;-76
2022/11/23 08:36:43;;;;;;;5.10;0.70;;;;;;;9.86;62.67;95805.72;4876178;28;20281;-76
2022/11/23 08:39:10;;;;;;;7.32;0.90;;;;;;;10.07;61.89;95821.13;4861181;28;20207;-76
2022/11/23 08:41:38;;;;;;;5.07;1.00;;;;;;;10.05;61.70;95810.25;4883399;28;20187;-76
2022/11/23 08:44:04;;;;;;;3.13;0.75;;;;;;;9.92;61.46;95812.44;4883177;28;20183;-76
2022/11/23 08:46:29;;;;;;;5.00;1.10;;;;;;;10.08;60.87;95807.88;4883616;28;20282;-77
2022/11/23 08:48:55;;;;;;;8.63;1.02;;;;;;;10.14;60.64;95813.78;4864792;28;20649;-76
2022/11/23 08:51:21;;;;;;;3.60;1.10;;;;;;;10.26;60.37;95816.81;4876768;28;20210;-76
2022/11/23 08:53:50;;;;;;;6.10;1.02;;;;;;;10.49;59.65;95814.53;4883606;28;20207;-77
2022/11/23 08:56:16;;;;;;;5.22;0.70;;;;;;;10.20;60.35;95817.91;4883327;28;20629;-76
2022/11/23 08:58:41;;;;;;;4.47;0.88;;;;;;;10.45;59.45;95810.91;4867541;28;20333;-76
2022/11/23 09:01:08;;;;;;;5.38;0.93;;;;;;;10.58;59.83;95802.44;4883218;28;20190;-76
2022/11/23 09:03:34;;;;;;;5.20;0.80;;;;;;;10.53;59.70;95802.50;4883102;28;20183;-76
2022/11/23 09:06:00;;;;;;;3.72;0.50;;;;;;;10.64;59.03;95801.34;4882934;28;20156;-77
2022/11/23 09:08:25;;;;;;;7.00;0.80;;;;;;;10.66;59.22;95804.44;4866730;28;20252;-76
2022/11/23 09:10:51;;;;;;;3.70;1.15;;;;;;;10.74;59.22;95808.22;4867321;29;20172;-75
2022/11/23 09:13:16;;;;;;;7.13;0.85;;;;;;;10.63;59.03;95804.22;4883187;28;20653;-76
2022/11/23 09:15:41;;;;;;;4.72;0.73;;;;;;;10.75;58.56;95803.81;4880245;28;20709;-76
2022/11/23 09:18:07;;;;;;;4.47;0.80;;;;;;;10.58;57.98;95809.47;4882817;28;20282;-77
2022/11/23 09:20:32;;;;;;;5.05;1.48;;;;;;;10.79;57.95;95810.00;4863628;29;20195;-76
2022/11/23 09:22:57;;;;;;;3.80;0.98;;;;;;;10.91;58.18;95804.41;4882650;28;20674;-76
2022/11/23 09:25:23;;;;;;;6.18;0.90;;;;;;;11.08;57.76;95811.75;4876694;28;20215;-76
2022/11/23 09:27:56;;;;;;;3.75;0.90;;;;;;;11.24;57.30;95806.06;4879864;28;20221;-76
2022/11/23 09:30:21;;;;;;;4.72;1.17;;;;;;;11.23;57.02;95809.69;4866914;28;20367;-76
2022/11/23 09:32:46;;;;;;;3.85;0.70;;;;;;;11.09;56.94;95806.25;4860250;29;20255;-76
2022/11/23 09:35:12;;;;;;;6.10;0.93;;;;;;;11.27;57.12;95812.50;4882945;28;20373;-77
2022/11/23 09:37:37;;;;;;;5.13;0.77;;;;;;;11.00;56.71;95813.13;4876691;28;20204;-76
2022/11/23 09:40:03;;;;;;;6.63;1.13;;;;;;;11.07;56.27;95813.59;4873502;28;20224;-76
2022/11/23 09:42:51;;;;;;;2.65;0.73;;;;;;;11.23;55.49;95806.34;4882081;28;20327;-76
2022/11/23 09:45:28;;;;;;;2.83;0.60;;;;;;;11.52;56.00;95818.44;4882814;28;20356;-76
2022/11/23 09:48:00;;;;;;;6.13;0.98;;;;;;;11.17;55.30;95821.25;4868398;28;20086;-76
2022/11/23 09:50:44;;;;;;;8.13;1.77;;;;;;;11.69;54.44;95816.09;4870069;28;20263;-76
2022/11/23 09:53:14;;;;;;;4.07;0.85;;;;;;;11.73;55.88;95814.44;4859563;29;20263;-76
2022/11/23 09:55:42;;;;;;;2.70;0.60;;;;;;;11.84;54.93;95817.69;4879819;28;20291;-77
2022/11/23 09:58:12;;;;;;;2.80;0.60;;;;;;;11.82;55.02;95814.56;4882401;28;20285;-76
2022/11/23 10:00:45;;;;;;;4.65;1.15;;;;;;;11.99;53.88;95814.06;4882664;28;20210;-77
2022/11/23 10:03:15;;;;;;;4.35;0.82;;;;;;;11.96;54.51;95819.84;4866169;28;20207;-76
2022/11/23 10:05:44;;;;;;;5.72;1.15;;;;;;;11.64;53.35;95808.34;4851152;29;20199;-76
2022/11/23 10:08:20;;;;;;;2.85;0.70;;;;;;;11.80;53.19;95811.47;4850726;28;20104;-76
2022/11/23 10:11:04;;;;;;;2.17;0.35;;;;;;;11.95;53.08;95802.66;4881490;28;20228;-76
2022/11/23 10:13:37;;;;;;;4.05;0.90;;;;;;;12.00;53.54;95805.19;4876027;28;20177;-77
2022/11/23 10:16:22;;;;;;;4.07;0.98;;;;;;;11.89;53.35;95801.97;4850226;29;20270;-76
2022/11/23 10:18:59;;;;;;;2.90;0.70;;;;;;;12.02;52.91;95795.25;4875761;28;20210;-77
2022/11/23 10:21:55;;;;;;;2.33;0.65;;;;;;;12.21;52.80;95791.78;4854432;29;20704;-76
2022/11/23 10:24:23;;;;;;;;;;;;;;;12.40;52.13;95795.09;4876461;28;20271;-77
2022/11/23 10:26:49;;;;;;;3.67;0.70;;;;;;;12.04;53.17;95798.34;4867289;28;20059;-77
2022/11/23 10:29:23;;;;;;;5.00;1.33;;;;;;;12.33;53.08;95787.63;4861402;28;20758;-76
2022/11/23 10:31:49;;;;;;;5.30;1.43;;;;;;;11.89;52.44;95775.09;4860935;28;20292;-77
2022/11/23 10:34:32;;;;;;;5.68;0.77;;;;;;;12.31;52.36;95776.72;4870987;29;20658;-76
2022/11/23 10:36:57;;;;;;;2.22;0.73;;;;;;;12.07;52.17;95771.69;4854006;29;20266;-77
2022/11/23 10:39:25;;;;;;;4.72;0.60;;;;;;;11.74;51.72;95770.91;4867774;29;20305;-76
2022/11/23 10:41:51;;;;;;;5.78;1.05;;;;;;;11.70;51.55;95770.69;4885283;28;20219;-76
2022/11/23 10:44:36;;;;;;;4.30;1.48;;;;;;;12.06;51.30;95769.34;4873671;28;20629;-76
2022/11/23 10:47:02;;;;;;;3.35;1.02;;;;;;;12.10;51.68;95763.28;4885830;28;20214;-76
2022/11/23 10:49:30;;;;;;;2.53;0.60;;;;;;;11.96;50.38;95760.66;4867638;29;20667;-76
2022/11/23 10:52:25;;;;;;;3.78;0.90;;;;;;;12.39;50.20;95753.63;4869372;29;20310;-76
2022/11/23 10:54:56;;;;;;;3.72;0.75;;;;;;;12.48;52.07;95749.28;4885622;28;20631;-76
2022/11/23 10:57:32;;;;;;;3.95;0.95;;;;;;;12.44;50.67;95751.69;4873379;28;20194;-76
2022/11/23 11:00:03;;;;;;;3.08;0.80;;;;;;;12.63;51.17;95748.97;4883456;28;20202;-76
2022/11/23 11:02:37;;;;;;;5.50;0.95;;;;;;;12.76;50.15;95742.16;4883772;28;20270;-77
2022/11/23 11:05:25;;;;;;;5.35;0.73;;;;;;;12.95;49.35;95743.88;4865610;28;20247;-76
2022/11/23 11:07:51;;;;;;;2.42;0.60;;;;;;;12.65;49.70;95744.22;4870039;28;20192;-76
2022/11/23 11:10:38;;;;;;;2.33;0.45;;;;;;;12.03;48.72;95736.81;4862205;28;20212;-76
2022/11/23 11:13:21;;;;;;;3.72;1.15;;;;;;;12.36;50.66;95739.31;4855347;29;20269;-76
2022/11/23 11:16:00;;;;;;;4.18;0.73;;;;;;;12.55;49.69;95736.59;4877160;28;20213;-76
2022/11/23 11:18:28;;;;;;;3.42;0.60;;;;;;;12.42;50.34;95735.53;4873547;28;20619;-76
2022/11/23 11:21:05;;;;;;;3.58;0.95;;;;;;;12.66;49.79;95726.72;4863654;29;20668;-76
2022/11/23 11:23:31;;;;;;;3.20;0.90;;;;;;;12.79;50.03;95722.53;4881316;28;20241;-76
2022/11/23 11:26:18;;;;;;;4.53;0.80;;;;;;;13.06;50.39;95717.22;4878474;28;20724;-77
2022/11/23 11:28:47;;;;;;;2.63;0.70;;;;;;;12.81;49.88;95720.41;4885130;28;20267;-75
2022/11/23 11:31:31;;;;;;;5.90;0.70;;;;;;;13.00;49.13;95718.41;4868791;28;20168;-76
2022/11/23 11:34:22;;;;;;;2.70;0.43;;;;;;;12.36;48.96;95727.03;4870850;28;20279;-76
2022/11/23 11:37:07;;;;;;;2.63;1.00;;;;;;;13.02;49.25;95723.34;4860674;29;20386;-76